Time;durP1;ratioP1;P1;durP2;ratioP2;P2;SDS_P1;SDS_P2;PMS_P1;PMS_P2;Temp;Humidity;BMP_temperature;BMP_pressure;BME280_temperature;BME280_humidity;BME280_pressure;Samples;Min_cycle;Max_cycle;Signal;HPM_P1;HPM_P2
2022/02/01 00:02:04;;;;;;;;;8.75;8.25;;;;;4.58;60.55;102257.22;5099966;27;45585;-76
2022/02/01 00:04:40;;;;;;;;;10.00;8.75;;;;;4.50;61.04;102229.63;5087833;27;45386;-76
2022/02/01 00:12:40;;;;;;;;;7.00;7.00;;;;;4.60;60.57;102221.78;5085377;27;45006;-76
2022/02/01 00:18:05;;;;;;;;;14.75;11.00;;;;;4.06;60.16;102133.16;5091274;27;45071;-76
2022/02/01 00:36:50;;;;;;;;;7.00;7.00;;;;;4.26;60.45;102198.97;5090840;27;45830;-75
2022/02/01 00:39:17;;;;;;;;;10.25;6.25;;;;;4.07;60.76;102161.00;5123760;27;45421;-76
2022/02/01 00:41:52;;;;;;;;;13.75;11.00;;;;;4.12;60.75;102162.28;5108389;27;45877;-76
2022/02/01 00:44:18;;;;;;;;;9.00;9.00;;;;;4.21;60.42;102176.84;5108326;27;45309;-76
2022/02/01 00:46:43;;;;;;;;;11.25;9.00;;;;;3.66;60.62;102102.94;5107471;27;45373;-76
2022/02/01 00:49:09;;;;;;;;;10.75;9.00;;;;;4.20;60.52;102190.66;5092553;27;45332;-76
2022/02/01 00:51:35;;;;;;;;;8.25;7.25;;;;;4.26;60.89;102225.91;5099661;27;45142;-76
2022/02/01 00:54:00;;;;;;;;;10.50;9.50;;;;;4.34;60.45;102236.97;5102683;27;45318;-76
2022/02/01 00:56:26;;;;;;;;;6.25;5.75;;;;;4.32;60.78;102223.78;5094173;27;45084;-75
2022/02/01 00:58:51;;;;;;;;;9.25;7.00;;;;;3.68;60.44;102116.06;5103675;27;45869;-76
2022/02/01 01:01:16;;;;;;;;;8.33;7.00;;;;;3.63;60.46;102123.47;5099715;27;45342;-75
2022/02/01 01:03:44;;;;;;;;;9.50;8.00;;;;;3.58;60.64;102115.28;5101902;27;45579;-76
2022/02/01 01:06:10;;;;;;;;;14.00;12.00;;;;;3.65;60.74;102126.22;5090730;27;45642;-76
2022/02/01 01:08:35;;;;;;;;;9.50;7.50;;;;;4.00;60.79;102183.78;5097944;27;45131;-75
2022/02/01 01:11:02;;;;;;;;;11.00;9.00;;;;;4.40;61.04;102261.78;5107979;27;45434;-75
2022/02/01 01:16:03;;;;;;;;;11.00;10.00;;;;;4.09;60.91;102194.97;5106446;27;45166;-76
2022/02/01 01:45:51;;;;;;;;;9.00;7.25;;;;;4.10;61.40;102199.38;5096087;27;45177;-76
2022/02/01 01:53:44;;;;;;;;;10.25;7.50;;;;;3.94;61.90;102163.38;5088666;27;45102;-76
2022/02/01 01:56:10;;;;;;;;;9.00;6.00;;;;;4.34;62.03;102232.66;5114765;27;45955;-75
2022/02/01 01:58:35;;;;;;;;;10.00;8.00;;;;;3.74;62.15;102121.78;5096772;27;44956;-75
2022/02/01 02:03:35;;;;;;;;;6.00;5.50;;;;;4.15;61.88;102164.25;5088951;27;45480;-76
2022/02/01 02:06:00;;;;;;;;;6.50;6.50;;;;;4.07;61.89;102148.00;5101261;27;45596;-76
2022/02/01 02:08:26;;;;;;;;;9.75;9.75;;;;;4.29;62.08;102157.59;5102196;27;45195;-75
2022/02/01 02:11:06;;;;;;;;;9.00;7.00;;;;;4.65;61.84;102223.06;5095265;27;45126;-76
2022/02/01 02:16:22;;;;;;;;;7.00;7.00;;;;;4.60;62.21;102208.78;5089079;27;45645;-75
2022/02/01 02:18:47;;;;;;;;;7.00;6.50;;;;;3.94;62.12;102084.41;5095445;27;45737;-76
2022/02/01 02:21:13;;;;;;;;;6.00;3.50;;;;;4.11;62.19;102104.94;5099236;27;45092;-75
2022/02/01 02:23:38;;;;;;;;;10.50;9.50;;;;;4.50;62.14;102159.34;5097315;27;45562;-78
2022/02/01 02:26:06;;;;;;;;;8.00;6.50;;;;;4.79;62.41;102218.09;5090480;27;45577;-75
2022/02/01 02:28:32;;;;;;;;;9.00;7.50;;;;;4.85;62.53;102227.31;5093910;27;45270;-76
2022/02/01 02:31:01;;;;;;;;;9.25;7.50;;;;;4.07;62.44;102095.06;5095244;27;45198;-75
2022/02/01 02:33:27;;;;;;;;;9.25;6.50;;;;;4.92;62.56;102221.78;5096343;27;45505;-76
2022/02/01 02:36:02;;;;;;;;;6.00;5.75;;;;;5.03;62.40;102232.19;5095193;27;45651;-76
2022/02/01 02:46:31;;;;;;;;;7.75;6.00;;;;;4.91;63.12;102166.97;5103114;27;45249;-75
2022/02/01 02:48:56;;;;;;;;;6.50;5.75;;;;;4.64;63.20;102118.81;5103637;27;45245;-76
2022/02/01 02:51:22;;;;;;;;;6.75;5.25;;;;;4.65;63.17;102125.81;5101033;27;45511;-76
2022/02/01 02:53:47;;;;;;;;;5.25;5.00;;;;;4.54;63.01;102096.31;5102856;27;45282;-76
2022/02/01 02:56:13;;;;;;;;;5.00;4.75;;;;;4.60;63.19;102089.00;5102656;27;45821;-76
2022/02/01 02:58:39;;;;;;;;;6.75;6.50;;;;;5.07;63.38;102154.38;5104535;27;45212;-76
2022/02/01 03:01:05;;;;;;;;;6.50;6.00;;;;;4.65;63.46;102060.72;5107803;27;45391;-76
2022/02/01 03:03:31;;;;;;;;;7.25;6.75;;;;;4.55;63.17;102061.69;5102459;27;46315;-76
2022/02/01 03:05:56;;;;;;;;;6.50;6.00;;;;;4.72;63.69;102085.53;5103382;27;45207;-76
2022/02/01 03:08:26;;;;;;;;;5.00;5.00;;;;;4.80;63.99;102095.78;5108981;27;45376;-76
2022/02/01 03:10:51;;;;;;;;;5.25;4.50;;;;;4.42;63.99;102044.97;5107901;27;44988;-75
2022/02/01 03:13:23;;;;;;;;;6.00;6.00;;;;;4.73;64.22;102109.13;5108475;27;45137;-76
2022/02/01 03:15:56;;;;;;;;;6.50;5.00;;;;;4.90;64.16;102140.00;5101402;27;46196;-76
2022/02/01 03:21:05;;;;;;;;;4.75;3.00;;;;;4.94;64.73;102140.28;5110545;27;45409;-76
2022/02/01 03:23:30;;;;;;;;;6.50;5.25;;;;;4.28;64.61;102020.44;5107282;27;45230;-75
2022/02/01 03:25:56;;;;;;;;;6.25;3.50;;;;;4.62;64.69;102069.19;5107148;27;47046;-75
2022/02/01 03:28:21;;;;;;;;;8.75;6.00;;;;;4.71;65.05;102078.53;5106300;27;45221;-75
2022/02/01 03:30:46;;;;;;;;;7.50;6.50;;;;;4.28;65.10;102007.41;5109091;27;45164;-75
2022/02/01 03:33:12;;;;;;;;;4.50;4.50;;;;;4.90;65.17;102116.56;5109909;27;45532;-76
2022/02/01 03:35:37;;;;;;;;;5.00;4.50;;;;;5.02;65.48;102153.09;5106322;27;45081;-75
2022/02/01 03:38:02;;;;;;;;;3.00;3.00;;;;;4.05;65.37;101975.28;5110298;27;45245;-76
2022/02/01 03:40:28;;;;;;;;;5.50;4.00;;;;;4.46;65.59;102065.25;5107210;27;45197;-76
2022/02/01 03:42:54;;;;;;;;;7.00;6.50;;;;;4.77;65.93;102097.22;5108761;27;45534;-76
2022/02/01 03:45:19;;;;;;;;;8.75;4.00;;;;;4.57;65.74;102065.31;5102826;27;45585;-76
2022/02/01 03:47:45;;;;;;;;;10.25;6.00;;;;;4.44;65.83;102044.31;5109685;27;45045;-76
2022/02/01 03:50:10;;;;;;;;;6.50;5.00;;;;;4.73;66.01;102108.19;5106691;27;45515;-76
2022/02/01 03:52:36;;;;;;;;;2.25;2.25;;;;;4.61;65.82;102077.78;5107493;27;45030;-76
2022/02/01 03:55:03;;;;;;;;;5.00;3.00;;;;;4.63;65.90;102060.63;5107275;27;45603;-76
2022/02/01 03:57:29;;;;;;;;;5.75;5.25;;;;;4.95;66.34;102090.88;5103247;27;45337;-76
2022/02/01 03:59:57;;;;;;;;;1.00;1.00;;;;;4.60;66.17;101992.66;5102267;27;46050;-76
2022/02/01 04:02:23;;;;;;;;;6.00;5.25;;;;;4.98;66.37;102054.66;5102975;27;45729;-76
2022/02/01 04:04:53;;;;;;;;;4.00;4.00;;;;;4.54;66.45;101978.25;5102035;27;47750;-75
2022/02/01 04:07:19;;;;;;;;;5.00;3.00;;;;;5.29;66.25;102088.28;5105364;27;45408;-78
2022/02/01 04:09:45;;;;;;;;;7.00;6.50;;;;;4.93;66.51;102029.94;5100108;27;45885;-76
2022/02/01 04:12:10;;;;;;;;;4.50;4.00;;;;;4.97;66.54;102031.97;5101731;27;45444;-76
2022/02/01 04:14:36;;;;;;;;;6.25;6.00;;;;;4.88;66.49;102007.84;5105520;27;46129;-76
2022/02/01 04:17:05;;;;;;;;;5.25;3.00;;;;;4.66;66.82;101963.59;5094478;27;45431;-76
2022/02/01 04:19:32;;;;;;;;;5.50;4.00;;;;;5.13;66.72;102060.16;5094678;27;45332;-76
2022/02/01 04:22:01;;;;;;;;;5.00;4.50;;;;;5.10;66.94;102039.06;5094864;27;45291;-75
2022/02/01 04:24:35;;;;;;;;;2.25;2.25;;;;;5.47;66.88;102102.75;5089983;27;45532;-76
2022/02/01 04:27:01;;;;;;;;;5.00;4.00;;;;;5.60;67.44;102123.75;5090781;27;45664;-76
2022/02/01 04:29:27;;;;;;;;;5.75;5.00;;;;;4.86;67.43;101988.56;5084854;27;45925;-75
2022/02/01 04:31:52;;;;;;;;;5.00;5.00;;;;;5.01;67.34;102015.78;5089309;27;45220;-75
2022/02/01 04:34:18;;;;;;;;;5.00;3.00;;;;;5.31;67.45;102053.72;5093092;27;45742;-75
2022/02/01 04:36:43;;;;;;;;;6.25;5.25;;;;;5.71;67.52;102116.72;5112138;27;46546;-77
2022/02/01 04:39:09;;;;;;;;;7.50;7.00;;;;;5.65;68.05;102116.28;5088556;27;45726;-76
2022/02/01 04:41:34;;;;;;;;;6.25;5.25;;;;;5.07;68.13;102013.66;5083341;27;45819;-76
2022/02/01 04:44:00;;;;;;;;;8.25;4.50;;;;;5.52;68.22;102080.56;5089259;27;46679;-76
2022/02/01 04:46:27;;;;;;;;;7.00;5.00;;;;;5.66;68.23;102087.72;5088634;27;46023;-76
2022/02/01 04:48:53;;;;;;;;;3.50;2.75;;;;;5.31;68.36;102025.03;5093220;27;45273;-76
2022/02/01 04:51:20;;;;;;;;;3.50;3.50;;;;;5.91;68.59;102126.06;5094604;27;45214;-76
2022/02/01 04:53:47;;;;;;;;;7.00;4.50;;;;;5.39;68.80;102038.69;5094087;27;48145;-76
2022/02/01 04:56:14;;;;;;;;;5.00;4.50;;;;;5.28;68.70;102013.50;5092615;27;45187;-76
2022/02/01 04:58:40;;;;;;;;;5.00;4.50;;;;;5.93;68.87;102104.56;5095405;27;45932;-76
2022/02/01 05:01:05;;;;;;;;;3.00;3.00;;;;;5.91;68.87;102092.16;5096209;27;46001;-76
2022/02/01 05:03:31;;;;;;;;;5.00;4.00;;;;;5.61;68.95;102033.38;5094191;27;45587;-77
2022/02/01 05:05:56;;;;;;;;;5.25;5.00;;;;;5.89;69.12;102075.47;5096111;27;45243;-77
2022/02/01 05:08:24;;;;;;;;;5.50;5.50;;;;;5.28;68.73;101956.16;5092484;27;45341;-75
2022/02/01 05:10:49;;;;;;;;;2.00;2.00;;;;;5.60;69.42;102029.84;5096926;27;45576;-76
2022/02/01 05:16:04;;;;;;;;;5.25;4.00;;;;;5.59;69.31;102011.50;5097413;27;45151;-76
2022/02/01 05:18:46;;;;;;;;;5.75;3.00;;;;;5.32;69.34;101966.00;5091610;27;45853;-75
2022/02/01 05:21:19;;;;;;;;;4.00;4.00;;;;;5.52;69.24;102020.56;5093377;27;46361;-76
2022/02/01 05:23:45;;;;;;;;;5.25;4.50;;;;;5.21;69.23;101960.00;5094634;27;45771;-75
2022/02/01 05:26:11;;;;;;;;;4.00;4.00;;;;;5.45;69.35;102020.88;5091305;27;46741;-76
2022/02/01 05:28:37;;;;;;;;;4.50;3.00;;;;;5.28;69.53;102003.97;5091364;27;45977;-76
2022/02/01 05:31:04;;;;;;;;;4.00;3.00;;;;;6.00;69.44;102116.34;5090933;27;45555;-75
2022/02/01 05:33:33;;;;;;;;;2.75;2.75;;;;;5.97;69.94;102112.63;5093562;27;46607;-75
2022/02/01 05:36:00;;;;;;;;;4.00;3.00;;;;;5.97;70.15;102105.72;5093624;27;45170;-76
2022/02/01 05:38:26;;;;;;;;;5.25;5.00;;;;;5.73;70.32;102070.81;5092864;27;45077;-76
2022/02/01 05:40:51;;;;;;;;;5.25;3.00;;;;;5.47;70.35;102036.63;5095975;27;46220;-76
2022/02/01 05:43:22;;;;;;;;;4.50;4.50;;;;;5.91;70.29;102105.19;5091255;27;45818;-76
2022/02/01 05:45:48;;;;;;;;;4.00;4.00;;;;;5.90;71.20;102092.94;5093622;27;45282;-76
2022/02/01 05:48:14;;;;;;;;;6.75;5.75;;;;;5.55;70.80;102005.13;5094148;27;45682;-75
2022/02/01 05:50:41;;;;;;;;;4.00;4.00;;;;;6.04;70.77;102087.09;5093348;27;46289;-75
2022/02/01 05:53:07;;;;;;;;;5.25;5.25;;;;;6.01;71.22;102066.00;5090113;27;46084;-76
2022/02/01 05:55:34;;;;;;;;;5.75;5.00;;;;;5.98;71.30;102052.72;5095864;27;45544;-75
2022/02/01 05:58:00;;;;;;;;;5.00;5.00;;;;;5.71;71.01;101986.31;5098251;27;45150;-76
2022/02/01 06:00:29;;;;;;;;;5.50;3.00;;;;;5.70;71.14;101974.97;5097702;27;45178;-75
2022/02/01 06:02:54;;;;;;;;;3.50;3.50;;;;;5.81;71.04;101988.84;5092826;27;45630;-76
2022/02/01 06:05:20;;;;;;;;;5.25;4.00;;;;;6.30;71.21;102056.75;5096508;27;45074;-76
2022/02/01 06:07:46;;;;;;;;;5.00;4.75;;;;;6.24;71.49;102040.66;5098253;27;45125;-75
2022/02/01 06:10:12;;;;;;;;;4.00;3.00;;;;;6.31;71.43;102042.94;5098444;27;45327;-75
2022/02/01 06:12:42;;;;;;;;;2.00;2.00;;;;;6.11;71.61;102008.47;5088152;27;45503;-76
2022/02/01 06:15:10;;;;;;;;;3.00;3.00;;;;;6.24;71.64;102033.75;5101671;27;45440;-76
2022/02/01 06:17:36;;;;;;;;;9.25;5.25;;;;;6.20;71.80;102027.38;5109937;27;45435;-75
2022/02/01 06:20:05;;;;;;;;;4.50;2.75;;;;;6.24;72.09;102038.06;5107049;27;45066;-76
2022/02/01 06:22:30;;;;;;;;;2.00;2.00;;;;;5.89;72.08;101976.34;5101414;27;45411;-76
2022/02/01 06:24:58;;;;;;;;;3.00;2.00;;;;;6.03;72.39;101993.03;5105087;27;45097;-76
2022/02/01 06:27:25;;;;;;;;;3.25;3.00;;;;;6.11;72.30;102005.84;5104266;27;45255;-76
2022/02/01 06:29:51;;;;;;;;;5.00;5.00;;;;;5.88;72.46;101951.03;5103703;27;45200;-76
2022/02/01 06:32:17;;;;;;;;;3.00;2.00;;;;;5.64;72.06;101927.59;5112228;27;45887;-76
2022/02/01 06:34:43;;;;;;;;;6.25;6.00;;;;;5.87;72.67;101972.72;5108102;27;45500;-77
2022/02/01 06:37:08;;;;;;;;;4.75;3.00;;;;;6.09;72.56;102012.66;5108634;27;45150;-76
2022/02/01 06:39:34;;;;;;;;;3.50;3.00;;;;;5.63;72.80;101925.78;5110741;27;45111;-76
2022/02/01 06:41:59;;;;;;;;;5.00;3.75;;;;;5.41;73.08;101875.44;5107735;27;46643;-76
2022/02/01 06:44:25;;;;;;;;;6.75;3.50;;;;;6.15;72.76;102005.25;5110490;27;45363;-75
2022/02/01 06:46:51;;;;;;;;;3.00;2.75;;;;;5.87;72.88;101944.94;5106894;27;45095;-76
2022/02/01 06:49:16;;;;;;;;;6.00;3.00;;;;;6.18;72.98;102008.09;5111597;27;44962;-76
2022/02/01 06:51:42;;;;;;;;;4.25;4.25;;;;;6.43;72.84;102067.31;5110742;27;45608;-75
2022/02/01 06:54:09;;;;;;;;;3.00;3.00;;;;;5.85;72.90;101949.09;5107631;27;45165;-79
2022/02/01 06:56:36;;;;;;;;;5.50;3.00;;;;;6.45;73.12;102043.13;5111147;27;45306;-76
2022/02/01 06:59:03;;;;;;;;;6.00;5.50;;;;;6.46;72.92;102050.16;5106439;27;45485;-77
2022/02/01 07:01:29;;;;;;;;;2.50;2.25;;;;;5.86;73.09;101945.72;5090597;27;45539;-77
2022/02/01 07:03:55;;;;;;;;;2.50;2.50;;;;;6.38;73.20;102035.66;5093558;27;45502;-77
2022/02/01 07:06:21;;;;;;;;;6.25;5.00;;;;;5.54;72.74;101888.59;5093516;27;45741;-76
2022/02/01 07:08:48;;;;;;;;;6.50;5.25;;;;;5.83;73.44;101921.13;5096460;27;45789;-76
2022/02/01 07:11:18;;;;;;;;;5.75;4.00;;;;;6.07;73.37;101967.28;5092029;27;45470;-76
2022/02/01 07:13:46;;;;;;;;;3.25;2.25;;;;;5.84;73.41;101935.97;5097815;27;45699;-79
2022/02/01 07:16:11;;;;;;;;;2.00;2.00;;;;;5.97;73.47;101967.41;5109870;27;45182;-76
2022/02/01 07:18:36;;;;;;;;;5.50;4.50;;;;;5.78;73.68;101943.34;5111301;27;45142;-76
2022/02/01 07:21:02;;;;;;;;;5.00;5.00;;;;;5.83;73.52;101953.31;5110132;27;46030;-75
2022/02/01 07:23:27;;;;;;;;;4.25;3.75;;;;;6.23;74.10;102015.38;5108591;27;45221;-76
2022/02/01 07:25:55;;;;;;;;;5.25;5.25;;;;;5.77;74.86;101941.53;5111356;27;45184;-76
2022/02/01 07:28:22;;;;;;;;;5.00;3.00;;;;;5.60;75.07;101894.25;5107368;27;45394;-75
2022/02/01 07:30:49;;;;;;;;;6.50;5.25;;;;;6.06;74.51;101993.25;5108499;27;45426;-76
2022/02/01 07:33:15;;;;;;;;;5.00;3.00;;;;;5.66;75.27;101933.84;5106942;27;45097;-75
2022/02/01 07:35:41;;;;;;;;;2.25;2.00;;;;;6.06;75.14;102006.28;5096012;27;45409;-76
2022/02/01 07:38:08;;;;;;;;;4.00;2.50;;;;;6.10;75.12;102004.00;5092704;27;45372;-75
2022/02/01 07:40:35;;;;;;;;;4.75;4.75;;;;;5.78;75.16;101945.97;5090489;27;45694;-76
2022/02/01 07:43:01;;;;;;;;;5.25;3.00;;;;;5.88;75.38;101949.34;5087579;27;46272;-76
2022/02/01 07:45:29;;;;;;;;;5.00;4.25;;;;;6.35;75.49;102039.72;5090712;27;45600;-77
2022/02/01 07:48:01;;;;;;;;;2.25;2.25;;;;;5.89;75.60;101942.41;5092502;27;45667;-75
2022/02/01 07:50:27;;;;;;;;;7.75;6.50;;;;;5.89;75.65;101939.81;5080091;27;46999;-76
2022/02/01 07:52:53;;;;;;;;;5.75;4.25;;;;;6.49;75.48;102012.91;5075974;27;45640;-76
2022/02/01 07:55:18;;;;;;;;;6.50;5.75;;;;;6.58;75.41;102021.41;5092004;27;45618;-78
2022/02/01 07:57:44;;;;;;;;;7.75;5.75;;;;;6.28;75.64;101956.56;5092239;27;45507;-76
2022/02/01 08:00:10;;;;;;;;;6.25;5.25;;;;;6.12;75.49;101912.81;5082006;27;45970;-76
2022/02/01 08:02:36;;;;;;;;;5.00;3.50;;;;;6.47;75.65;101970.13;5096660;27;45695;-76
2022/02/01 08:05:03;;;;;;;;;6.50;6.00;;;;;6.59;75.51;101981.41;5081041;27;45717;-76
2022/02/01 08:07:28;;;;;;;;;7.00;6.25;;;;;6.57;75.74;101969.97;5094486;27;45890;-75
2022/02/01 08:09:58;;;;;;;;;8.00;6.25;;;;;6.13;75.30;101902.47;5108595;27;46021;-76
2022/02/01 08:20:05;;;;;;;;;5.25;5.00;;;;;6.05;76.16;101843.59;5107672;27;45525;-76
2022/02/01 08:24:56;;;;;;;;;7.00;6.00;;;;;6.44;76.17;101918.56;5105460;27;45489;-75
2022/02/01 08:27:21;;;;;;;;;6.75;4.25;;;;;6.39;76.52;101899.06;5096650;27;45385;-76
2022/02/01 08:29:47;;;;;;;;;6.50;5.75;;;;;6.64;76.25;101937.31;5092392;27;45816;-76
2022/02/01 08:32:13;;;;;;;;;7.50;7.00;;;;;6.37;76.36;101878.88;5098269;27;45560;-76
2022/02/01 08:34:38;;;;;;;;;4.25;4.25;;;;;6.72;76.20;101942.28;5099303;27;45474;-75
2022/02/01 08:37:04;;;;;;;;;10.00;6.50;;;;;6.79;76.43;101954.06;5099310;27;45566;-75
2022/02/01 08:39:29;;;;;;;;;6.75;6.50;;;;;6.11;76.65;101811.81;5098619;27;45799;-75
2022/02/01 08:41:54;;;;;;;;;7.25;6.00;;;;;6.45;76.14;101872.47;5096031;27;45757;-75
2022/02/01 08:44:27;;;;;;;;;6.50;6.00;;;;;6.37;76.45;101863.22;5095157;27;45512;-75
2022/02/01 08:46:52;;;;;;;;;6.25;6.25;;;;;6.05;76.61;101800.94;5094642;27;45466;-76
2022/02/01 08:49:18;;;;;;;;;7.75;6.75;;;;;6.61;76.40;101888.41;5097292;27;45834;-77
2022/02/01 08:51:45;;;;;;;;;5.00;4.00;;;;;6.93;76.66;101952.41;5100550;27;45456;-76
2022/02/01 08:54:17;;;;;;;;;6.50;6.00;;;;;7.04;77.16;101960.97;5097737;27;45691;-76
2022/02/01 08:59:28;;;;;;;;;6.00;5.00;;;;;6.55;79.91;101874.94;5094291;27;45257;-75
2022/02/01 09:01:53;;;;;;;;;6.00;5.50;;;;;6.78;79.86;101912.16;5106798;27;45116;-76
2022/02/01 09:04:19;;;;;;;;;7.25;6.75;;;;;6.87;78.57;101915.41;5090131;27;45182;-75
2022/02/01 09:06:44;;;;;;;;;6.25;6.25;;;;;6.47;78.25;101835.22;5100914;27;45689;-76
2022/02/01 09:09:10;;;;;;;;;7.00;6.67;;;;;7.12;78.48;101949.34;5101707;27;45648;-76
2022/02/01 09:11:35;;;;;;;;;7.00;7.00;;;;;6.62;78.13;101865.81;5109503;27;45248;-75
2022/02/01 09:14:00;;;;;;;;;8.00;7.25;;;;;6.95;77.99;101902.06;5109276;27;45019;-75
2022/02/01 09:16:26;;;;;;;;;7.33;5.33;;;;;7.04;78.16;101908.69;5097701;27;45013;-76
2022/02/01 09:18:51;;;;;;;;;6.00;5.33;;;;;6.93;77.63;101876.63;5098003;27;46269;-75
2022/02/01 09:21:17;;;;;;;;;8.50;8.00;;;;;6.78;77.42;101845.13;5105308;27;45682;-76
2022/02/01 09:23:42;;;;;;;;;5.50;3.50;;;;;7.02;77.01;101881.56;5094317;27;45858;-78
2022/02/01 09:26:08;;;;;;;;;8.00;7.50;;;;;6.60;77.21;101789.97;5100656;27;45480;-75
2022/02/01 09:28:34;;;;;;;;;6.25;4.25;;;;;6.94;77.13;101852.28;5104070;27;45440;-75
2022/02/01 09:30:59;;;;;;;;;6.50;6.00;;;;;6.79;77.04;101820.81;5104740;27;45465;-77
2022/02/01 09:33:25;;;;;;;;;8.75;7.00;;;;;7.34;77.21;101910.75;5102925;27;45117;-77
2022/02/01 09:35:50;;;;;;;;;6.75;6.25;;;;;6.94;76.92;101839.22;5104002;27;45229;-75
2022/02/01 09:38:17;;;;;;;;;8.75;6.50;;;;;6.68;76.80;101773.06;5105705;27;45555;-77
2022/02/01 09:40:43;;;;;;;;;8.25;8.25;;;;;7.24;77.01;101866.47;5108873;27;45397;-76
2022/02/01 09:43:08;;;;;;;;;7.00;6.00;;;;;7.00;77.02;101804.78;5109079;27;45349;-76
2022/02/01 09:45:36;;;;;;;;;11.75;9.50;;;;;7.10;76.96;101842.06;5109644;27;45164;-76
2022/02/01 09:48:01;;;;;;;;;7.75;7.00;;;;;7.20;76.68;101843.56;5107330;27;46191;-75
2022/02/01 09:50:27;;;;;;;;;11.50;10.50;;;;;6.94;76.74;101811.38;5105216;27;45079;-76
2022/02/01 09:52:53;;;;;;;;;11.00;9.25;;;;;6.92;76.64;101788.56;5096685;27;45170;-76
2022/02/01 09:55:20;;;;;;;;;12.50;9.25;;;;;7.18;76.73;101825.16;5109170;27;45214;-76
2022/02/01 09:57:51;;;;;;;;;10.00;9.00;;;;;7.64;76.78;101911.88;5108645;27;45384;-77
2022/02/01 10:00:21;;;;;;;;;11.25;8.00;;;;;7.68;76.77;101903.38;5108932;27;45486;-75
2022/02/01 10:02:52;;;;;;;;;10.00;8.75;;;;;7.68;77.09;101906.00;5108423;27;45211;-79
2022/02/01 10:05:17;;;;;;;;;7.00;6.00;;;;;7.44;76.80;101870.44;5106010;27;45437;-77
2022/02/01 10:07:49;;;;;;;;;8.75;8.25;;;;;7.67;77.07;101908.53;5109557;27;46045;-76
2022/02/01 10:10:15;;;;;;;;;9.00;8.50;;;;;7.38;77.80;101847.38;5106478;27;45715;-75
2022/02/01 10:12:42;;;;;;;;;11.25;8.50;;;;;7.44;77.38;101865.19;5107825;27;45232;-75
2022/02/01 10:15:18;;;;;;;;;7.50;7.25;;;;;7.62;77.52;101876.81;5104338;27;45616;-76
2022/02/01 10:17:49;;;;;;;;;9.25;9.25;;;;;7.87;77.87;101910.72;5100525;27;46143;-76
2022/02/01 10:20:16;;;;;;;;;4.00;4.00;;;;;7.82;77.41;101885.06;5107686;27;45224;-76
2022/02/01 10:22:44;;;;;;;;;9.25;7.25;;;;;7.81;77.59;101888.47;5103992;27;45208;-76
2022/02/01 10:25:26;;;;;;;;;10.50;9.00;;;;;7.53;78.87;101823.91;5104720;27;45250;-76
2022/02/01 10:28:02;;;;;;;;;7.75;7.75;;;;;7.96;78.05;101902.53;5108397;27;45617;-76
2022/02/01 10:30:39;;;;;;;;;7.00;6.50;;;;;7.70;78.13;101857.31;5106673;27;45432;-75
2022/02/01 10:35:55;;;;;;;;;7.00;7.00;;;;;7.74;77.83;101861.94;5101138;27;45263;-75
2022/02/01 10:38:22;;;;;;;;;5.00;5.00;;;;;7.92;77.97;101876.97;5108565;27;46103;-76
2022/02/01 10:40:50;;;;;;;;;9.50;7.25;;;;;7.86;77.83;101853.94;5106843;27;45445;-76
2022/02/01 10:43:33;;;;;;;;;6.50;6.50;;;;;7.87;77.96;101844.38;5090695;27;45191;-76
2022/02/01 10:46:12;;;;;;;;;6.00;6.00;;;;;8.20;77.95;101875.28;5101478;27;45639;-75
2022/02/01 10:48:45;;;;;;;;;6.00;5.00;;;;;7.97;78.11;101841.53;5096234;27;45716;-75
2022/02/01 10:51:15;;;;;;;;;4.00;3.50;;;;;8.06;77.76;101825.50;5088637;27;45862;-78
2022/02/01 10:53:41;;;;;;;;;6.00;5.50;;;;;8.36;77.92;101871.94;5089165;27;45523;-77
2022/02/01 10:56:16;;;;;;;;;5.75;4.00;;;;;8.39;78.54;101879.09;5088717;27;45568;-76
2022/02/01 10:58:44;;;;;;;;;5.00;5.00;;;;;8.11;77.72;101818.81;5089731;27;45386;-76
2022/02/01 11:01:11;;;;;;;;;6.00;6.00;;;;;8.13;77.46;101799.78;5080558;27;45556;-75
2022/02/01 11:03:47;;;;;;;;;7.75;6.50;;;;;8.42;77.27;101832.09;5091948;27;45487;-75
2022/02/01 11:06:14;;;;;;;;;16.50;12.75;;;;;8.22;77.19;101781.09;5083737;27;45535;-75
2022/02/01 11:08:41;;;;;;;;;10.25;10.25;;;;;8.57;77.27;101827.81;5081672;27;46373;-75
2022/02/01 11:11:15;;;;;;;;;9.00;8.00;;;;;8.70;77.08;101840.81;5090384;27;45808;-76
2022/02/01 11:13:43;;;;;;;;;8.25;8.00;;;;;8.53;77.14;101778.66;5088705;27;45475;-75
2022/02/01 11:16:13;;;;;;;;;13.50;12.25;;;;;8.67;76.90;101797.78;5088321;27;45456;-75
2022/02/01 11:18:39;;;;;;;;;11.25;9.25;;;;;8.50;77.11;101741.78;5089227;27;46456;-75
2022/02/01 11:21:14;;;;;;;;;9.00;9.00;;;;;8.66;76.47;101767.16;5090263;27;45550;-75
2022/02/01 11:23:51;;;;;;;;;5.75;5.50;;;;;8.73;76.50;101779.81;5089954;27;45694;-75
2022/02/01 11:26:39;;;;;;;;;6.25;6.00;;;;;8.93;76.83;101794.09;5089376;27;45534;-75
2022/02/01 11:31:49;;;;;;;;;9.25;9.25;;;;;8.87;76.54;101765.81;5091771;27;45338;-75
2022/02/01 11:34:18;;;;;;;;;12.50;10.50;;;;;9.17;76.52;101799.84;5093741;27;45609;-76
2022/02/01 11:36:44;;;;;;;;;9.50;9.50;;;;;9.25;76.52;101799.44;5094169;27;45758;-75
2022/02/01 11:39:12;;;;;;;;;12.00;10.75;;;;;9.12;76.60;101762.88;5102983;27;46096;-80
2022/02/01 11:41:41;;;;;;;;;6.75;6.75;;;;;8.81;75.94;101691.13;5102243;27;45479;-78
2022/02/01 11:44:25;;;;;;;;;8.50;7.50;;;;;8.88;75.80;101698.53;5115592;27;45180;-78
2022/02/01 11:47:10;;;;;;;;;15.00;13.00;;;;;9.44;76.09;101793.50;5127703;27;45136;-79
2022/02/01 11:49:57;;;;;;;;;10.75;9.00;;;;;9.21;76.43;101746.72;5129991;27;45518;-76
2022/02/01 11:52:24;;;;;;;;;8.00;8.00;;;;;8.78;76.16;101670.91;5104896;27;45566;-81
2022/02/01 11:55:00;;;;;;;;;6.00;5.50;;;;;8.89;75.91;101705.59;5090718;27;45435;-76
2022/02/01 11:57:28;;;;;;;;;5.25;5.25;;;;;8.74;75.87;101680.31;5088368;27;45255;-77
2022/02/01 11:59:56;;;;;;;;;6.00;5.75;;;;;8.73;75.94;101665.41;5089790;28;45789;-79
2022/02/01 12:02:31;;;;;;;;;16.00;15.50;;;;;9.50;76.01;101783.34;5080735;27;45449;-77
2022/02/01 12:05:15;;;;;;;;;9.00;6.75;;;;;9.56;76.06;101788.97;5076234;27;45542;-79
2022/02/01 12:07:45;;;;;;;;;7.00;7.00;;;;;9.35;75.81;101768.47;5072553;27;45486;-79
2022/02/01 12:10:16;;;;;;;;;10.75;10.00;;;;;9.37;75.90;101748.50;5082096;27;46082;-77
2022/02/01 12:12:43;;;;;;;;;10.00;9.75;;;;;9.03;75.87;101705.53;5074884;27;45448;-77
2022/02/01 12:15:08;;;;;;;;;4.00;4.00;;;;;9.38;76.21;101763.41;5093852;27;45093;-79
2022/02/01 12:17:40;;;;;;;;;7.50;7.00;;;;;9.56;76.21;101785.44;5110598;27;45052;-82
2022/02/01 12:20:09;;;;;;;;;3.00;3.00;;;;;9.03;76.01;101694.16;5107486;27;45798;-79
2022/02/01 12:23:02;;;;;;;;;5.25;4.50;;;;;9.62;76.37;101772.66;5108553;27;45669;-76
2022/02/01 12:25:29;;;;;;;;;7.50;5.25;;;;;9.64;76.09;101773.63;5088888;27;45488;-81
2022/02/01 12:27:54;;;;;;;;;4.00;4.00;;;;;8.90;75.99;101658.47;5088137;27;45130;-76
2022/02/01 12:30:19;;;;;;;;;6.25;4.75;;;;;9.04;76.20;101677.59;5089233;27;45486;-79
2022/02/01 12:32:54;;;;;;;;;7.25;6.25;;;;;9.65;76.63;101757.03;5079455;27;45691;-76
2022/02/01 12:35:34;;;;;;;;;3.00;3.00;;;;;9.23;76.48;101679.53;5086561;27;45183;-80
2022/02/01 12:38:14;;;;;;;;;5.25;5.25;;;;;8.92;76.41;101609.66;5088465;27;45087;-76
2022/02/01 12:40:40;;;;;;;;;4.75;4.75;;;;;9.15;76.83;101638.84;5088551;27;45273;-78
2022/02/01 12:43:14;;;;;;;;;4.00;4.00;;;;;9.53;76.81;101706.53;5085004;27;45482;-76
2022/02/01 12:45:54;;;;;;;;;2.50;2.50;;;;;9.48;77.03;101685.28;5082345;27;45586;-75
2022/02/01 12:48:20;;;;;;;;;5.00;4.25;;;;;9.56;77.17;101707.59;5090246;27;45817;-82
2022/02/01 12:51:12;;;;;;;;;7.25;4.00;;;;;9.85;77.07;101720.47;5091966;27;47073;-78
2022/02/01 12:53:39;;;;;;;;;3.75;3.75;;;;;9.87;77.41;101721.47;5086734;27;46059;-75
2022/02/01 12:56:20;;;;;;;;;8.00;7.00;;;;;9.81;77.37;101696.69;5097048;27;45453;-76
2022/02/01 12:58:57;;;;;;;;;5.00;4.25;;;;;9.81;77.11;101673.06;5106832;27;45155;-81
2022/02/01 13:01:37;;;;;;;;;3.25;3.00;;;;;9.99;76.96;101698.47;5106762;27;45180;-76
2022/02/01 13:04:05;;;;;;;;;2.75;2.75;;;;;9.71;77.13;101659.38;5108050;27;45723;-78
2022/02/01 13:06:38;;;;;;;;;3.00;2.75;;;;;9.59;77.20;101633.38;5103186;27;45476;-81
2022/02/01 13:14:45;;;;;;;;;3.50;3.00;;;;;10.00;77.07;101679.25;5086148;27;45701;-76
2022/02/01 13:17:34;;;;;;;;;6.00;4.25;;;;;10.14;77.26;101694.00;5086097;27;45508;-76
2022/02/01 13:20:10;;;;;;;;;4.00;3.25;;;;;10.20;76.76;101686.44;5084777;27;46943;-75